sensor_id;sensor_type;location;lat;lon;timestamp;P1;durP1;ratioP1;P2;durP2;ratioP2
76310;SDS011;65120;59.304;18.294;2024-01-30T00:02:00;17.38;;;4.72;;
76310;SDS011;65120;59.304;18.294;2024-01-30T00:04:27;16.45;;;5.40;;
76310;SDS011;65120;59.304;18.294;2024-01-30T00:06:54;18.65;;;5.93;;
76310;SDS011;65120;59.304;18.294;2024-01-30T00:09:21;20.48;;;6.07;;
76310;SDS011;65120;59.304;18.294;2024-01-30T00:11:49;23.00;;;5.97;;
76310;SDS011;65120;59.304;18.294;2024-01-30T00:14:16;14.55;;;4.85;;
76310;SDS011;65120;59.304;18.294;2024-01-30T00:16:43;14.18;;;4.93;;
76310;SDS011;65120;59.304;18.294;2024-01-30T00:19:10;18.20;;;5.00;;
76310;SDS011;65120;59.304;18.294;2024-01-30T00:21:38;17.50;;;5.43;;
76310;SDS011;65120;59.304;18.294;2024-01-30T00:24:05;18.92;;;5.47;;
76310;SDS011;65120;59.304;18.294;2024-01-30T00:26:32;21.60;;;6.00;;
76310;SDS011;65120;59.304;18.294;2024-01-30T00:29:00;15.90;;;4.93;;
76310;SDS011;65120;59.304;18.294;2024-01-30T00:31:27;17.00;;;4.43;;
76310;SDS011;65120;59.304;18.294;2024-01-30T00:33:54;14.77;;;4.55;;
76310;SDS011;65120;59.304;18.294;2024-01-30T00:36:21;16.88;;;4.85;;
76310;SDS011;65120;59.304;18.294;2024-01-30T00:38:48;11.65;;;4.25;;
76310;SDS011;65120;59.304;18.294;2024-01-30T00:41:17;21.63;;;3.97;;
76310;SDS011;65120;59.304;18.294;2024-01-30T00:43:44;14.57;;;4.18;;
76310;SDS011;65120;59.304;18.294;2024-01-30T00:46:13;15.02;;;5.15;;
76310;SDS011;65120;59.304;18.294;2024-01-30T00:48:40;16.63;;;4.22;;
76310;SDS011;65120;59.304;18.294;2024-01-30T00:51:07;16.60;;;4.25;;
76310;SDS011;65120;59.304;18.294;2024-01-30T00:53:34;15.40;;;5.13;;
76310;SDS011;65120;59.304;18.294;2024-01-30T00:56:01;14.10;;;4.60;;
76310;SDS011;65120;59.304;18.294;2024-01-30T00:58:28;13.75;;;4.05;;
76310;SDS011;65120;59.304;18.294;2024-01-30T01:00:55;15.48;;;5.22;;
76310;SDS011;65120;59.304;18.294;2024-01-30T01:03:24;17.98;;;4.80;;
76310;SDS011;65120;59.304;18.294;2024-01-30T01:05:50;19.25;;;5.13;;
76310;SDS011;65120;59.304;18.294;2024-01-30T01:08:17;20.05;;;6.75;;
76310;SDS011;65120;59.304;18.294;2024-01-30T01:10:45;23.83;;;6.22;;
76310;SDS011;65120;59.304;18.294;2024-01-30T01:13:12;18.40;;;5.80;;
76310;SDS011;65120;59.304;18.294;2024-01-30T01:15:39;18.65;;;5.65;;
76310;SDS011;65120;59.304;18.294;2024-01-30T01:18:06;19.02;;;5.43;;
76310;SDS011;65120;59.304;18.294;2024-01-30T01:20:36;18.63;;;5.22;;
76310;SDS011;65120;59.304;18.294;2024-01-30T01:23:03;16.92;;;5.45;;
76310;SDS011;65120;59.304;18.294;2024-01-30T01:25:30;20.48;;;5.20;;
76310;SDS011;65120;59.304;18.294;2024-01-30T01:27:57;16.65;;;4.85;;
76310;SDS011;65120;59.304;18.294;2024-01-30T01:30:26;19.92;;;5.47;;
76310;SDS011;65120;59.304;18.294;2024-01-30T01:32:54;18.73;;;4.85;;
76310;SDS011;65120;59.304;18.294;2024-01-30T01:35:22;16.92;;;4.82;;
76310;SDS011;65120;59.304;18.294;2024-01-30T01:37:52;22.17;;;5.70;;
76310;SDS011;65120;59.304;18.294;2024-01-30T01:40:22;18.63;;;5.68;;
76310;SDS011;65120;59.304;18.294;2024-01-30T01:42:49;17.58;;;5.80;;
76310;SDS011;65120;59.304;18.294;2024-01-30T01:45:17;16.60;;;5.00;;
76310;SDS011;65120;59.304;18.294;2024-01-30T01:47:44;12.88;;;3.90;;
76310;SDS011;65120;59.304;18.294;2024-01-30T01:50:14;15.90;;;4.63;;
76310;SDS011;65120;59.304;18.294;2024-01-30T01:52:44;18.73;;;4.45;;
76310;SDS011;65120;59.304;18.294;2024-01-30T01:55:14;16.48;;;5.13;;
76310;SDS011;65120;59.304;18.294;2024-01-30T01:57:42;16.65;;;6.00;;
76310;SDS011;65120;59.304;18.294;2024-01-30T02:00:10;12.88;;;5.47;;
76310;SDS011;65120;59.304;18.294;2024-01-30T02:02:38;15.32;;;5.25;;
76310;SDS011;65120;59.304;18.294;2024-01-30T02:05:06;15.80;;;5.63;;
76310;SDS011;65120;59.304;18.294;2024-01-30T02:07:33;16.48;;;4.90;;
76310;SDS011;65120;59.304;18.294;2024-01-30T02:10:00;15.07;;;5.10;;
76310;SDS011;65120;59.304;18.294;2024-01-30T02:12:28;14.48;;;4.70;;
76310;SDS011;65120;59.304;18.294;2024-01-30T02:14:55;18.13;;;4.55;;
76310;SDS011;65120;59.304;18.294;2024-01-30T02:17:23;13.45;;;5.03;;
76310;SDS011;65120;59.304;18.294;2024-01-30T02:19:50;14.95;;;3.67;;
76310;SDS011;65120;59.304;18.294;2024-01-30T02:22:19;14.50;;;5.57;;
76310;SDS011;65120;59.304;18.294;2024-01-30T02:24:47;12.63;;;5.18;;
76310;SDS011;65120;59.304;18.294;2024-01-30T02:27:14;15.55;;;4.75;;
76310;SDS011;65120;59.304;18.294;2024-01-30T02:29:41;19.15;;;4.85;;
76310;SDS011;65120;59.304;18.294;2024-01-30T02:32:08;13.10;;;4.93;;
76310;SDS011;65120;59.304;18.294;2024-01-30T02:34:35;16.23;;;5.55;;
76310;SDS011;65120;59.304;18.294;2024-01-30T02:37:02;28.15;;;6.40;;
76310;SDS011;65120;59.304;18.294;2024-01-30T02:39:31;13.02;;;4.95;;
76310;SDS011;65120;59.304;18.294;2024-01-30T02:41:58;14.60;;;4.28;;
76310;SDS011;65120;59.304;18.294;2024-01-30T02:44:25;23.50;;;6.43;;
76310;SDS011;65120;59.304;18.294;2024-01-30T02:46:52;24.02;;;6.47;;
76310;SDS011;65120;59.304;18.294;2024-01-30T02:49:20;25.55;;;6.00;;
76310;SDS011;65120;59.304;18.294;2024-01-30T02:51:47;31.13;;;6.35;;
76310;SDS011;65120;59.304;18.294;2024-01-30T02:54:14;30.05;;;5.68;;
76310;SDS011;65120;59.304;18.294;2024-01-30T02:56:42;25.65;;;6.15;;
76310;SDS011;65120;59.304;18.294;2024-01-30T02:59:09;24.27;;;6.20;;
76310;SDS011;65120;59.304;18.294;2024-01-30T03:01:42;27.90;;;5.82;;
76310;SDS011;65120;59.304;18.294;2024-01-30T03:04:09;32.92;;;6.72;;
76310;SDS011;65120;59.304;18.294;2024-01-30T03:06:36;26.70;;;6.05;;
76310;SDS011;65120;59.304;18.294;2024-01-30T03:09:03;22.88;;;5.10;;
76310;SDS011;65120;59.304;18.294;2024-01-30T03:11:30;37.05;;;6.78;;
76310;SDS011;65120;59.304;18.294;2024-01-30T03:13:59;32.13;;;5.95;;
76310;SDS011;65120;59.304;18.294;2024-01-30T03:16:26;24.25;;;5.78;;
76310;SDS011;65120;59.304;18.294;2024-01-30T03:18:52;32.53;;;7.45;;
76310;SDS011;65120;59.304;18.294;2024-01-30T03:21:19;34.90;;;6.88;;
76310;SDS011;65120;59.304;18.294;2024-01-30T03:23:46;24.98;;;6.97;;
76310;SDS011;65120;59.304;18.294;2024-01-30T03:26:13;27.95;;;7.30;;
76310;SDS011;65120;59.304;18.294;2024-01-30T03:28:41;23.63;;;6.07;;
76310;SDS011;65120;59.304;18.294;2024-01-30T03:31:09;25.98;;;6.53;;
76310;SDS011;65120;59.304;18.294;2024-01-30T03:33:36;32.70;;;6.45;;
76310;SDS011;65120;59.304;18.294;2024-01-30T03:36:04;35.92;;;6.40;;
76310;SDS011;65120;59.304;18.294;2024-01-30T03:38:32;26.92;;;6.82;;
76310;SDS011;65120;59.304;18.294;2024-01-30T03:40:59;20.83;;;5.60;;
76310;SDS011;65120;59.304;18.294;2024-01-30T03:43:26;26.80;;;6.40;;
76310;SDS011;65120;59.304;18.294;2024-01-30T03:45:53;24.15;;;6.50;;
76310;SDS011;65120;59.304;18.294;2024-01-30T03:48:22;31.00;;;6.10;;
76310;SDS011;65120;59.304;18.294;2024-01-30T03:50:48;18.65;;;6.15;;
76310;SDS011;65120;59.304;18.294;2024-01-30T03:53:15;32.58;;;7.07;;
76310;SDS011;65120;59.304;18.294;2024-01-30T03:55:42;24.60;;;5.22;;
76310;SDS011;65120;59.304;18.294;2024-01-30T03:58:09;20.23;;;5.72;;
76310;SDS011;65120;59.304;18.294;2024-01-30T04:00:36;20.25;;;5.65;;
76310;SDS011;65120;59.304;18.294;2024-01-30T04:03:04;22.23;;;6.78;;
76310;SDS011;65120;59.304;18.294;2024-01-30T04:05:32;27.38;;;6.75;;
76310;SDS011;65120;59.304;18.294;2024-01-30T04:07:59;19.60;;;5.82;;
76310;SDS011;65120;59.304;18.294;2024-01-30T04:10:26;23.00;;;5.45;;
76310;SDS011;65120;59.304;18.294;2024-01-30T04:12:53;21.63;;;6.28;;
76310;SDS011;65120;59.304;18.294;2024-01-30T04:15:20;23.52;;;7.50;;
76310;SDS011;65120;59.304;18.294;2024-01-30T04:17:47;20.52;;;5.63;;
76310;SDS011;65120;59.304;18.294;2024-01-30T04:20:15;14.50;;;4.72;;
76310;SDS011;65120;59.304;18.294;2024-01-30T04:22:44;24.67;;;6.63;;
76310;SDS011;65120;59.304;18.294;2024-01-30T04:25:12;21.45;;;5.53;;
76310;SDS011;65120;59.304;18.294;2024-01-30T04:27:39;19.73;;;5.88;;
76310;SDS011;65120;59.304;18.294;2024-01-30T04:30:06;14.57;;;4.68;;
76310;SDS011;65120;59.304;18.294;2024-01-30T04:32:34;13.60;;;4.10;;
76310;SDS011;65120;59.304;18.294;2024-01-30T04:35:02;14.85;;;4.18;;
76310;SDS011;65120;59.304;18.294;2024-01-30T04:37:29;17.58;;;5.10;;
76310;SDS011;65120;59.304;18.294;2024-01-30T04:39:57;17.83;;;4.43;;
76310;SDS011;65120;59.304;18.294;2024-01-30T04:42:24;18.80;;;4.40;;
76310;SDS011;65120;59.304;18.294;2024-01-30T04:44:51;14.27;;;4.10;;
76310;SDS011;65120;59.304;18.294;2024-01-30T04:47:18;12.32;;;3.80;;
76310;SDS011;65120;59.304;18.294;2024-01-30T04:49:45;11.98;;;3.67;;
76310;SDS011;65120;59.304;18.294;2024-01-30T04:52:12;12.07;;;3.33;;
76310;SDS011;65120;59.304;18.294;2024-01-30T04:54:39;15.00;;;3.55;;
76310;SDS011;65120;59.304;18.294;2024-01-30T04:57:07;10.80;;;3.22;;
76310;SDS011;65120;59.304;18.294;2024-01-30T04:59:37;13.43;;;3.90;;
76310;SDS011;65120;59.304;18.294;2024-01-30T05:02:04;17.55;;;5.00;;
76310;SDS011;65120;59.304;18.294;2024-01-30T05:04:32;13.48;;;4.05;;
76310;SDS011;65120;59.304;18.294;2024-01-30T05:06:59;18.27;;;5.07;;
76310;SDS011;65120;59.304;18.294;2024-01-30T05:09:26;17.80;;;4.95;;
76310;SDS011;65120;59.304;18.294;2024-01-30T05:11:53;18.90;;;4.57;;
76310;SDS011;65120;59.304;18.294;2024-01-30T05:14:21;15.45;;;4.45;;
76310;SDS011;65120;59.304;18.294;2024-01-30T05:16:48;16.17;;;3.80;;
76310;SDS011;65120;59.304;18.294;2024-01-30T05:19:15;14.65;;;5.40;;
76310;SDS011;65120;59.304;18.294;2024-01-30T05:21:44;10.05;;;4.22;;
76310;SDS011;65120;59.304;18.294;2024-01-30T05:24:11;10.32;;;4.47;;
76310;SDS011;65120;59.304;18.294;2024-01-30T05:26:38;13.05;;;4.90;;
76310;SDS011;65120;59.304;18.294;2024-01-30T05:29:04;14.45;;;5.25;;
76310;SDS011;65120;59.304;18.294;2024-01-30T05:31:34;12.00;;;4.20;;
76310;SDS011;65120;59.304;18.294;2024-01-30T05:34:01;12.88;;;3.75;;
76310;SDS011;65120;59.304;18.294;2024-01-30T05:36:28;10.68;;;4.35;;
76310;SDS011;65120;59.304;18.294;2024-01-30T05:38:55;11.77;;;4.50;;
76310;SDS011;65120;59.304;18.294;2024-01-30T05:41:22;16.83;;;3.80;;
76310;SDS011;65120;59.304;18.294;2024-01-30T05:43:49;8.60;;;4.07;;
76310;SDS011;65120;59.304;18.294;2024-01-30T05:46:16;13.48;;;4.28;;
76310;SDS011;65120;59.304;18.294;2024-01-30T05:48:45;13.63;;;4.43;;
76310;SDS011;65120;59.304;18.294;2024-01-30T05:51:12;8.35;;;4.05;;
76310;SDS011;65120;59.304;18.294;2024-01-30T05:53:39;13.95;;;5.75;;
76310;SDS011;65120;59.304;18.294;2024-01-30T05:56:06;11.32;;;3.88;;
76310;SDS011;65120;59.304;18.294;2024-01-30T05:58:33;16.10;;;4.38;;
76310;SDS011;65120;59.304;18.294;2024-01-30T06:01:02;14.88;;;4.10;;
76310;SDS011;65120;59.304;18.294;2024-01-30T06:03:29;11.18;;;3.60;;
76310;SDS011;65120;59.304;18.294;2024-01-30T06:05:58;14.38;;;3.80;;
76310;SDS011;65120;59.304;18.294;2024-01-30T06:08:25;11.35;;;3.42;;
76310;SDS011;65120;59.304;18.294;2024-01-30T06:10:52;10.85;;;3.83;;
76310;SDS011;65120;59.304;18.294;2024-01-30T06:13:19;17.08;;;4.95;;
76310;SDS011;65120;59.304;18.294;2024-01-30T06:15:46;14.52;;;4.80;;
76310;SDS011;65120;59.304;18.294;2024-01-30T06:18:13;13.05;;;4.00;;
76310;SDS011;65120;59.304;18.294;2024-01-30T06:20:41;16.38;;;3.72;;
76310;SDS011;65120;59.304;18.294;2024-01-30T06:23:10;11.85;;;3.47;;
76310;SDS011;65120;59.304;18.294;2024-01-30T06:25:38;22.40;;;4.55;;
76310;SDS011;65120;59.304;18.294;2024-01-30T06:28:05;12.75;;;3.40;;
76310;SDS011;65120;59.304;18.294;2024-01-30T06:30:32;15.45;;;3.33;;
76310;SDS011;65120;59.304;18.294;2024-01-30T06:32:59;9.45;;;3.28;;
76310;SDS011;65120;59.304;18.294;2024-01-30T06:35:26;18.40;;;3.65;;
76310;SDS011;65120;59.304;18.294;2024-01-30T06:37:54;24.50;;;3.90;;
76310;SDS011;65120;59.304;18.294;2024-01-30T06:40:22;24.20;;;3.67;;
76310;SDS011;65120;59.304;18.294;2024-01-30T06:42:49;18.55;;;4.43;;
76310;SDS011;65120;59.304;18.294;2024-01-30T06:45:16;23.55;;;4.80;;
76310;SDS011;65120;59.304;18.294;2024-01-30T06:47:43;20.80;;;5.18;;
76310;SDS011;65120;59.304;18.294;2024-01-30T06:50:10;18.00;;;4.88;;
76310;SDS011;65120;59.304;18.294;2024-01-30T06:52:37;23.63;;;4.88;;
76310;SDS011;65120;59.304;18.294;2024-01-30T06:55:04;16.88;;;5.25;;
76310;SDS011;65120;59.304;18.294;2024-01-30T06:57:33;20.45;;;4.60;;
76310;SDS011;65120;59.304;18.294;2024-01-30T07:00:00;29.23;;;4.95;;
76310;SDS011;65120;59.304;18.294;2024-01-30T07:02:27;18.48;;;4.30;;
76310;SDS011;65120;59.304;18.294;2024-01-30T07:04:54;13.45;;;3.20;;
76310;SDS011;65120;59.304;18.294;2024-01-30T07:07:21;17.13;;;4.38;;
76310;SDS011;65120;59.304;18.294;2024-01-30T07:09:48;13.43;;;3.70;;
76310;SDS011;65120;59.304;18.294;2024-01-30T07:12:17;15.55;;;3.20;;
76310;SDS011;65120;59.304;18.294;2024-01-30T07:14:46;16.40;;;3.53;;
76310;SDS011;65120;59.304;18.294;2024-01-30T07:17:12;23.67;;;3.78;;
76310;SDS011;65120;59.304;18.294;2024-01-30T07:19:39;10.45;;;3.20;;
76310;SDS011;65120;59.304;18.294;2024-01-30T07:22:07;13.10;;;2.83;;
76310;SDS011;65120;59.304;18.294;2024-01-30T07:24:34;11.82;;;3.33;;
76310;SDS011;65120;59.304;18.294;2024-01-30T07:27:01;13.75;;;3.25;;
76310;SDS011;65120;59.304;18.294;2024-01-30T07:29:28;5.40;;;2.30;;
76310;SDS011;65120;59.304;18.294;2024-01-30T07:31:57;15.13;;;3.05;;
76310;SDS011;65120;59.304;18.294;2024-01-30T07:34:24;21.92;;;3.42;;
76310;SDS011;65120;59.304;18.294;2024-01-30T07:36:51;17.23;;;2.63;;
76310;SDS011;65120;59.304;18.294;2024-01-30T07:39:18;10.70;;;2.40;;
76310;SDS011;65120;59.304;18.294;2024-01-30T07:41:45;10.07;;;2.38;;
76310;SDS011;65120;59.304;18.294;2024-01-30T07:44:11;6.90;;;2.25;;
76310;SDS011;65120;59.304;18.294;2024-01-30T07:46:38;8.13;;;2.78;;
76310;SDS011;65120;59.304;18.294;2024-01-30T07:49:07;6.07;;;3.08;;
76310;SDS011;65120;59.304;18.294;2024-01-30T07:51:35;10.45;;;3.55;;
76310;SDS011;65120;59.304;18.294;2024-01-30T07:54:02;13.13;;;3.38;;
76310;SDS011;65120;59.304;18.294;2024-01-30T07:56:29;14.77;;;3.33;;
76310;SDS011;65120;59.304;18.294;2024-01-30T07:58:56;8.18;;;3.00;;
76310;SDS011;65120;59.304;18.294;2024-01-30T08:01:23;15.23;;;2.70;;
76310;SDS011;65120;59.304;18.294;2024-01-30T08:03:50;15.00;;;3.00;;
76310;SDS011;65120;59.304;18.294;2024-01-30T08:06:19;12.05;;;3.17;;
76310;SDS011;65120;59.304;18.294;2024-01-30T08:08:46;7.45;;;2.28;;
76310;SDS011;65120;59.304;18.294;2024-01-30T08:11:12;12.15;;;2.80;;
76310;SDS011;65120;59.304;18.294;2024-01-30T08:13:39;20.75;;;2.78;;
76310;SDS011;65120;59.304;18.294;2024-01-30T08:16:06;17.02;;;3.08;;
76310;SDS011;65120;59.304;18.294;2024-01-30T08:18:33;10.60;;;2.35;;
76310;SDS011;65120;59.304;18.294;2024-01-30T08:21:00;8.52;;;2.10;;
76310;SDS011;65120;59.304;18.294;2024-01-30T08:23:29;8.13;;;2.28;;
76310;SDS011;65120;59.304;18.294;2024-01-30T08:25:56;15.60;;;2.78;;
76310;SDS011;65120;59.304;18.294;2024-01-30T08:28:26;11.20;;;3.63;;
76310;SDS011;65120;59.304;18.294;2024-01-30T08:30:54;9.82;;;2.17;;
76310;SDS011;65120;59.304;18.294;2024-01-30T08:33:20;8.32;;;2.08;;
76310;SDS011;65120;59.304;18.294;2024-01-30T08:35:48;9.30;;;2.25;;
76310;SDS011;65120;59.304;18.294;2024-01-30T08:38:15;11.00;;;3.15;;
76310;SDS011;65120;59.304;18.294;2024-01-30T08:40:43;9.30;;;2.10;;
76310;SDS011;65120;59.304;18.294;2024-01-30T08:43:10;11.30;;;2.50;;
76310;SDS011;65120;59.304;18.294;2024-01-30T08:45:37;8.00;;;2.25;;
76310;SDS011;65120;59.304;18.294;2024-01-30T08:48:04;10.80;;;2.67;;
76310;SDS011;65120;59.304;18.294;2024-01-30T08:50:33;10.85;;;2.92;;
76310;SDS011;65120;59.304;18.294;2024-01-30T08:53:00;5.13;;;2.22;;
76310;SDS011;65120;59.304;18.294;2024-01-30T08:55:27;11.85;;;2.70;;
76310;SDS011;65120;59.304;18.294;2024-01-30T08:57:56;16.33;;;3.95;;
76310;SDS011;65120;59.304;18.294;2024-01-30T09:00:23;5.50;;;2.75;;
76310;SDS011;65120;59.304;18.294;2024-01-30T09:02:50;9.23;;;2.38;;
76310;SDS011;65120;59.304;18.294;2024-01-30T09:05:17;12.30;;;3.47;;
76310;SDS011;65120;59.304;18.294;2024-01-30T09:07:43;9.30;;;2.90;;
76310;SDS011;65120;59.304;18.294;2024-01-30T09:10:11;9.50;;;2.38;;
76310;SDS011;65120;59.304;18.294;2024-01-30T09:12:38;16.65;;;2.97;;
76310;SDS011;65120;59.304;18.294;2024-01-30T09:15:06;10.15;;;2.80;;
76310;SDS011;65120;59.304;18.294;2024-01-30T09:17:34;12.80;;;3.42;;
76310;SDS011;65120;59.304;18.294;2024-01-30T09:20:01;11.90;;;2.88;;
76310;SDS011;65120;59.304;18.294;2024-01-30T09:22:28;10.98;;;2.75;;
76310;SDS011;65120;59.304;18.294;2024-01-30T09:24:55;10.68;;;2.88;;
76310;SDS011;65120;59.304;18.294;2024-01-30T09:27:22;9.25;;;3.25;;
76310;SDS011;65120;59.304;18.294;2024-01-30T09:29:49;13.63;;;3.05;;
76310;SDS011;65120;59.304;18.294;2024-01-30T09:32:17;13.82;;;3.25;;
76310;SDS011;65120;59.304;18.294;2024-01-30T09:34:44;11.10;;;3.35;;
76310;SDS011;65120;59.304;18.294;2024-01-30T09:37:11;13.32;;;3.88;;
76310;SDS011;65120;59.304;18.294;2024-01-30T09:39:40;14.95;;;3.10;;
76310;SDS011;65120;59.304;18.294;2024-01-30T09:42:09;12.05;;;3.17;;
76310;SDS011;65120;59.304;18.294;2024-01-30T09:44:44;10.18;;;2.95;;
76310;SDS011;65120;59.304;18.294;2024-01-30T09:47:13;15.52;;;3.90;;
76310;SDS011;65120;59.304;18.294;2024-01-30T09:49:44;10.32;;;3.58;;
76310;SDS011;65120;59.304;18.294;2024-01-30T09:52:11;11.60;;;3.17;;
76310;SDS011;65120;59.304;18.294;2024-01-30T09:54:38;7.28;;;3.05;;
76310;SDS011;65120;59.304;18.294;2024-01-30T09:57:05;8.77;;;3.38;;
76310;SDS011;65120;59.304;18.294;2024-01-30T09:59:33;8.20;;;3.03;;
76310;SDS011;65120;59.304;18.294;2024-01-30T10:02:00;8.15;;;2.30;;
76310;SDS011;65120;59.304;18.294;2024-01-30T10:04:30;8.30;;;2.65;;
76310;SDS011;65120;59.304;18.294;2024-01-30T10:06:57;12.43;;;3.20;;
76310;SDS011;65120;59.304;18.294;2024-01-30T10:09:27;7.15;;;2.95;;
76310;SDS011;65120;59.304;18.294;2024-01-30T10:11:56;16.83;;;3.50;;
76310;SDS011;65120;59.304;18.294;2024-01-30T10:14:23;10.98;;;3.47;;
76310;SDS011;65120;59.304;18.294;2024-01-30T10:16:50;15.00;;;3.88;;
76310;SDS011;65120;59.304;18.294;2024-01-30T10:19:17;8.75;;;3.67;;
76310;SDS011;65120;59.304;18.294;2024-01-30T10:21:47;10.25;;;3.20;;
76310;SDS011;65120;59.304;18.294;2024-01-30T10:24:14;11.18;;;3.47;;
76310;SDS011;65120;59.304;18.294;2024-01-30T10:26:43;14.30;;;3.95;;
76310;SDS011;65120;59.304;18.294;2024-01-30T10:29:10;9.18;;;3.38;;
76310;SDS011;65120;59.304;18.294;2024-01-30T10:31:37;11.10;;;3.15;;
76310;SDS011;65120;59.304;18.294;2024-01-30T10:34:04;8.80;;;3.78;;
76310;SDS011;65120;59.304;18.294;2024-01-30T10:36:31;8.82;;;3.03;;
76310;SDS011;65120;59.304;18.294;2024-01-30T10:39:08;9.35;;;3.70;;
76310;SDS011;65120;59.304;18.294;2024-01-30T10:41:37;11.52;;;3.22;;
76310;SDS011;65120;59.304;18.294;2024-01-30T10:44:09;9.63;;;3.78;;
76310;SDS011;65120;59.304;18.294;2024-01-30T10:46:37;13.38;;;3.83;;
76310;SDS011;65120;59.304;18.294;2024-01-30T10:49:05;13.02;;;3.42;;
76310;SDS011;65120;59.304;18.294;2024-01-30T10:51:33;9.10;;;3.35;;
76310;SDS011;65120;59.304;18.294;2024-01-30T10:54:01;7.55;;;2.75;;
76310;SDS011;65120;59.304;18.294;2024-01-30T10:56:33;9.23;;;3.42;;
76310;SDS011;65120;59.304;18.294;2024-01-30T10:59:01;10.48;;;3.53;;
76310;SDS011;65120;59.304;18.294;2024-01-30T11:01:28;14.15;;;3.72;;
76310;SDS011;65120;59.304;18.294;2024-01-30T11:03:56;8.85;;;3.55;;
76310;SDS011;65120;59.304;18.294;2024-01-30T11:06:24;13.82;;;3.92;;
76310;SDS011;65120;59.304;18.294;2024-01-30T11:09:01;14.45;;;4.28;;
76310;SDS011;65120;59.304;18.294;2024-01-30T11:11:48;15.80;;;4.47;;
76310;SDS011;65120;59.304;18.294;2024-01-30T11:14:16;14.07;;;4.82;;
76310;SDS011;65120;59.304;18.294;2024-01-30T11:16:43;12.55;;;4.18;;
76310;SDS011;65120;59.304;18.294;2024-01-30T11:19:10;23.60;;;3.78;;
76310;SDS011;65120;59.304;18.294;2024-01-30T11:21:41;20.85;;;4.38;;
76310;SDS011;65120;59.304;18.294;2024-01-30T11:24:08;9.35;;;3.60;;
76310;SDS011;65120;59.304;18.294;2024-01-30T11:26:35;11.43;;;3.15;;
76310;SDS011;65120;59.304;18.294;2024-01-30T11:29:06;10.02;;;3.72;;
76310;SDS011;65120;59.304;18.294;2024-01-30T11:31:34;13.07;;;4.03;;
76310;SDS011;65120;59.304;18.294;2024-01-30T11:34:01;11.60;;;4.32;;
76310;SDS011;65120;59.304;18.294;2024-01-30T11:36:28;15.85;;;5.68;;
76310;SDS011;65120;59.304;18.294;2024-01-30T11:38:58;7.88;;;3.38;;
76310;SDS011;65120;59.304;18.294;2024-01-30T11:41:25;10.45;;;4.25;;
76310;SDS011;65120;59.304;18.294;2024-01-30T11:43:54;8.63;;;3.42;;
76310;SDS011;65120;59.304;18.294;2024-01-30T11:46:22;12.80;;;4.40;;
76310;SDS011;65120;59.304;18.294;2024-01-30T11:48:52;10.85;;;3.90;;
76310;SDS011;65120;59.304;18.294;2024-01-30T11:51:19;11.82;;;4.03;;
76310;SDS011;65120;59.304;18.294;2024-01-30T11:53:49;14.23;;;4.75;;
76310;SDS011;65120;59.304;18.294;2024-01-30T11:56:16;11.18;;;4.70;;
76310;SDS011;65120;59.304;18.294;2024-01-30T11:58:43;9.23;;;3.35;;
76310;SDS011;65120;59.304;18.294;2024-01-30T12:01:10;15.18;;;5.25;;
76310;SDS011;65120;59.304;18.294;2024-01-30T12:03:39;13.05;;;4.20;;
76310;SDS011;65120;59.304;18.294;2024-01-30T12:06:06;13.65;;;6.00;;
76310;SDS011;65120;59.304;18.294;2024-01-30T12:08:33;11.45;;;4.57;;
76310;SDS011;65120;59.304;18.294;2024-01-30T12:11:00;13.52;;;4.25;;
76310;SDS011;65120;59.304;18.294;2024-01-30T12:13:30;9.20;;;4.55;;
76310;SDS011;65120;59.304;18.294;2024-01-30T12:15:57;13.05;;;4.80;;
76310;SDS011;65120;59.304;18.294;2024-01-30T12:18:24;12.90;;;4.18;;
76310;SDS011;65120;59.304;18.294;2024-01-30T12:20:59;19.05;;;5.35;;
76310;SDS011;65120;59.304;18.294;2024-01-30T12:23:26;16.20;;;4.72;;
76310;SDS011;65120;59.304;18.294;2024-01-30T12:25:54;24.35;;;4.82;;
76310;SDS011;65120;59.304;18.294;2024-01-30T12:28:21;23.52;;;5.40;;
76310;SDS011;65120;59.304;18.294;2024-01-30T12:30:48;11.02;;;4.93;;
76310;SDS011;65120;59.304;18.294;2024-01-30T12:33:16;15.98;;;5.57;;
76310;SDS011;65120;59.304;18.294;2024-01-30T12:35:45;15.23;;;5.30;;
76310;SDS011;65120;59.304;18.294;2024-01-30T12:38:14;13.63;;;5.32;;
76310;SDS011;65120;59.304;18.294;2024-01-30T12:40:41;12.68;;;5.25;;
76310;SDS011;65120;59.304;18.294;2024-01-30T12:43:08;15.20;;;4.40;;
76310;SDS011;65120;59.304;18.294;2024-01-30T12:45:35;14.40;;;5.68;;
76310;SDS011;65120;59.304;18.294;2024-01-30T12:48:02;11.35;;;4.70;;
76310;SDS011;65120;59.304;18.294;2024-01-30T12:50:30;25.92;;;4.70;;
76310;SDS011;65120;59.304;18.294;2024-01-30T12:52:57;15.63;;;4.60;;
76310;SDS011;65120;59.304;18.294;2024-01-30T12:55:25;17.40;;;4.57;;
76310;SDS011;65120;59.304;18.294;2024-01-30T12:57:53;15.30;;;4.60;;
76310;SDS011;65120;59.304;18.294;2024-01-30T13:00:20;20.95;;;4.65;;
76310;SDS011;65120;59.304;18.294;2024-01-30T13:02:47;23.52;;;4.80;;
76310;SDS011;65120;59.304;18.294;2024-01-30T13:05:15;10.93;;;4.70;;
76310;SDS011;65120;59.304;18.294;2024-01-30T13:07:42;14.68;;;4.57;;
76310;SDS011;65120;59.304;18.294;2024-01-30T13:10:09;15.88;;;4.63;;
76310;SDS011;65120;59.304;18.294;2024-01-30T13:12:37;24.75;;;4.53;;
76310;SDS011;65120;59.304;18.294;2024-01-30T13:15:05;13.23;;;4.70;;
76310;SDS011;65120;59.304;18.294;2024-01-30T13:17:32;21.95;;;5.03;;
76310;SDS011;65120;59.304;18.294;2024-01-30T13:19:59;14.13;;;5.00;;
76310;SDS011;65120;59.304;18.294;2024-01-30T13:22:26;13.75;;;5.43;;
76310;SDS011;65120;59.304;18.294;2024-01-30T13:24:53;13.68;;;4.55;;
76310;SDS011;65120;59.304;18.294;2024-01-30T13:27:20;17.30;;;4.63;;
76310;SDS011;65120;59.304;18.294;2024-01-30T13:29:49;14.43;;;4.25;;
76310;SDS011;65120;59.304;18.294;2024-01-30T13:32:16;10.77;;;3.53;;
76310;SDS011;65120;59.304;18.294;2024-01-30T13:34:43;32.83;;;4.53;;
76310;SDS011;65120;59.304;18.294;2024-01-30T13:37:10;18.25;;;4.10;;
76310;SDS011;65120;59.304;18.294;2024-01-30T13:39:37;17.33;;;4.15;;
76310;SDS011;65120;59.304;18.294;2024-01-30T13:42:04;20.25;;;4.63;;
76310;SDS011;65120;59.304;18.294;2024-01-30T13:44:31;21.48;;;4.55;;
76310;SDS011;65120;59.304;18.294;2024-01-30T13:46:59;22.95;;;4.68;;
76310;SDS011;65120;59.304;18.294;2024-01-30T13:49:26;26.98;;;4.13;;
76310;SDS011;65120;59.304;18.294;2024-01-30T13:51:53;12.82;;;4.03;;
76310;SDS011;65120;59.304;18.294;2024-01-30T13:54:20;17.77;;;4.43;;
76310;SDS011;65120;59.304;18.294;2024-01-30T13:56:47;17.90;;;4.93;;
76310;SDS011;65120;59.304;18.294;2024-01-30T13:59:14;12.38;;;4.45;;
76310;SDS011;65120;59.304;18.294;2024-01-30T14:01:47;13.07;;;5.15;;
76310;SDS011;65120;59.304;18.294;2024-01-30T14:04:16;16.77;;;4.63;;
76310;SDS011;65120;59.304;18.294;2024-01-30T14:06:43;20.00;;;5.35;;
76310;SDS011;65120;59.304;18.294;2024-01-30T14:09:10;13.65;;;4.70;;
76310;SDS011;65120;59.304;18.294;2024-01-30T14:11:37;14.88;;;5.25;;
76310;SDS011;65120;59.304;18.294;2024-01-30T14:14:04;17.83;;;5.18;;
76310;SDS011;65120;59.304;18.294;2024-01-30T14:16:31;18.80;;;5.60;;
76310;SDS011;65120;59.304;18.294;2024-01-30T14:18:58;18.08;;;5.88;;
76310;SDS011;65120;59.304;18.294;2024-01-30T14:21:26;14.27;;;5.28;;
76310;SDS011;65120;59.304;18.294;2024-01-30T14:23:53;19.13;;;5.35;;
76310;SDS011;65120;59.304;18.294;2024-01-30T14:26:20;15.60;;;5.80;;